createdAt,value
2023-02-12T00:02:26.484Z,19.40
2023-02-12T00:04:58.472Z,19.25
2023-02-12T00:07:36.922Z,20.00
2023-02-12T00:10:09.774Z,19.77
2023-02-12T00:12:41.352Z,19.80
2023-02-12T00:15:12.785Z,14.68
2023-02-12T00:17:44.661Z,17.75
2023-02-12T00:20:15.380Z,16.60
2023-02-12T00:22:46.057Z,18.67
2023-02-12T00:25:20.071Z,17.43
2023-02-12T00:27:50.764Z,18.40
2023-02-12T00:30:21.458Z,14.68
2023-02-12T00:32:52.059Z,13.65
2023-02-12T00:35:22.503Z,14.98
2023-02-12T00:37:53.023Z,15.65
2023-02-12T00:40:25.116Z,16.02
2023-02-12T00:42:55.796Z,17.02
2023-02-12T00:45:26.210Z,17.12
2023-02-12T00:47:59.875Z,14.73
2023-02-12T00:50:31.911Z,13.58
2023-02-12T00:53:02.466Z,16.75
2023-02-12T00:55:33.208Z,20.10
2023-02-12T00:58:03.754Z,17.10
2023-02-12T01:00:34.480Z,13.25
2023-02-12T01:03:05.686Z,15.23
2023-02-12T01:05:37.029Z,18.77
2023-02-12T01:08:07.808Z,14.73
2023-02-12T01:10:38.297Z,14.55
2023-02-12T01:13:09.929Z,17.30
2023-02-12T01:15:40.881Z,14.90
2023-02-12T01:18:12.985Z,18.40
2023-02-12T01:20:43.668Z,15.68
2023-02-12T01:23:14.069Z,16.62
2023-02-12T01:25:45.506Z,16.32
2023-02-12T01:28:16.147Z,14.45
2023-02-12T01:30:50.005Z,18.50
2023-02-12T01:33:21.044Z,15.38
2023-02-12T01:35:51.477Z,12.75
2023-02-12T01:38:21.989Z,16.20
2023-02-12T01:40:52.611Z,14.10
2023-02-12T01:43:23.351Z,17.35
2023-02-12T01:45:54.559Z,16.00
2023-02-12T01:48:28.293Z,13.53
2023-02-12T01:51:00.188Z,15.32
2023-02-12T01:53:41.381Z,15.48
2023-02-12T01:56:12.647Z,12.95
2023-02-12T01:58:46.019Z,14.60
2023-02-12T02:01:25.509Z,16.15
2023-02-12T02:04:04.897Z,16.45
2023-02-12T02:06:40.897Z,13.95
2023-02-12T02:09:11.463Z,15.32
2023-02-12T02:11:59.995Z,16.37
2023-02-12T02:14:33.445Z,18.07
2023-02-12T02:17:17.276Z,16.65
2023-02-12T02:20:23.371Z,13.93
2023-02-12T02:23:16.696Z,11.05
2023-02-12T02:25:50.274Z,12.53
2023-02-12T02:28:29.648Z,11.95
2023-02-12T02:31:03.461Z,16.10
2023-02-12T02:33:43.001Z,13.90
2023-02-12T02:36:26.311Z,9.95
2023-02-12T02:38:59.908Z,15.25
2023-02-12T02:41:54.591Z,15.83
2023-02-12T02:44:46.094Z,16.60
2023-02-12T02:47:19.931Z,18.10
2023-02-12T02:49:59.413Z,18.35
2023-02-12T02:52:32.985Z,11.57
2023-02-12T02:55:06.553Z,18.77
2023-02-12T02:57:56.445Z,13.35
2023-02-12T03:00:48.760Z,18.15
2023-02-12T03:03:25.606Z,15.03
2023-02-12T03:05:59.217Z,11.97
2023-02-12T03:08:44.836Z,16.83
2023-02-12T03:11:27.580Z,16.02
2023-02-12T03:14:11.834Z,16.20
2023-02-12T03:16:51.477Z,14.38
2023-02-12T03:19:34.276Z,17.02
2023-02-12T03:22:13.566Z,18.67
2023-02-12T03:24:52.795Z,12.78
2023-02-12T03:27:29.328Z,18.98
2023-02-12T03:30:00.372Z,15.28
2023-02-12T03:33:09.090Z,13.05
2023-02-12T03:35:43.150Z,13.78
2023-02-12T03:38:22.448Z,15.30
2023-02-12T03:40:55.992Z,17.70
2023-02-12T03:43:50.883Z,15.48
2023-02-12T03:46:27.442Z,15.75
2023-02-12T03:49:03.220Z,14.40
2023-02-12T03:51:40.019Z,15.10
2023-02-12T03:54:13.194Z,13.27
2023-02-12T03:57:05.555Z,18.42
2023-02-12T03:59:38.710Z,15.78
2023-02-12T04:02:12.182Z,16.23
2023-02-12T04:04:43.248Z,17.82
2023-02-12T04:07:14.685Z,15.85
2023-02-12T04:09:45.776Z,16.32
2023-02-12T04:12:28.951Z,16.97
2023-02-12T04:15:11.482Z,17.12
2023-02-12T04:18:12.390Z,19.13
2023-02-12T04:20:55.232Z,16.80
2023-02-12T04:23:50.079Z,17.82
2023-02-12T04:26:35.595Z,16.67
2023-02-12T04:29:36.746Z,19.82
2023-02-12T04:32:34.623Z,18.82
2023-02-12T04:35:26.518Z,17.92
2023-02-12T04:38:07.320Z,18.73
2023-02-12T04:40:39.967Z,17.25
2023-02-12T04:43:11.904Z,19.17
2023-02-12T04:45:43.658Z,15.53
2023-02-12T04:48:14.990Z,17.82
2023-02-12T04:50:53.836Z,17.57
2023-02-12T04:53:24.332Z,20.12
2023-02-12T04:55:56.775Z,17.12
2023-02-12T04:58:27.562Z,15.08
2023-02-12T05:01:00.089Z,18.73
2023-02-12T05:03:31.506Z,15.13
2023-02-12T05:06:07.001Z,20.70
2023-02-12T05:08:38.662Z,17.35
2023-02-12T05:11:11.058Z,17.32
2023-02-12T05:13:41.911Z,18.65
2023-02-12T05:16:15.855Z,17.05
2023-02-12T05:18:46.646Z,17.30
2023-02-12T05:21:17.620Z,16.02
2023-02-12T05:23:48.295Z,17.37
2023-02-12T05:26:22.015Z,15.95
2023-02-12T05:28:52.570Z,18.77
2023-02-12T05:31:23.371Z,15.78
2023-02-12T05:33:54.508Z,16.32
2023-02-12T05:36:28.444Z,18.05
2023-02-12T05:39:01.698Z,15.70
2023-02-12T05:41:34.525Z,15.70
2023-02-12T05:44:06.801Z,16.23
2023-02-12T05:46:37.735Z,20.62
2023-02-12T05:49:09.121Z,15.97
2023-02-12T05:51:41.826Z,19.45
2023-02-12T05:54:14.985Z,18.35
2023-02-12T05:56:48.159Z,17.77
2023-02-12T05:59:23.083Z,18.17
2023-02-12T06:01:55.141Z,22.40
2023-02-12T06:04:28.941Z,17.17
2023-02-12T06:07:02.541Z,16.82
2023-02-12T06:09:32.998Z,18.15
2023-02-12T06:12:05.163Z,18.27
2023-02-12T06:14:35.630Z,17.07
2023-02-12T06:17:06.150Z,17.40
2023-02-12T06:19:38.112Z,16.67
2023-02-12T06:22:09.851Z,17.35
2023-02-12T06:24:41.290Z,16.23
2023-02-12T06:27:11.810Z,14.85
2023-02-12T06:29:44.134Z,22.07
2023-02-12T06:32:15.426Z,20.25
2023-02-12T06:34:46.073Z,19.02
2023-02-12T06:37:17.831Z,20.72
2023-02-12T06:39:48.621Z,20.08
2023-02-12T06:42:19.273Z,18.17
2023-02-12T06:44:52.588Z,15.30
2023-02-12T06:47:21.944Z,15.50
2023-02-12T06:49:53.852Z,17.15
2023-02-12T06:52:24.363Z,17.32
2023-02-12T06:54:55.052Z,17.50
2023-02-12T06:57:25.583Z,22.77
2023-02-12T06:59:56.501Z,17.05
2023-02-12T07:02:26.930Z,17.77
2023-02-12T07:04:57.496Z,23.00
2023-02-12T07:07:29.455Z,18.82
2023-02-12T07:09:59.973Z,17.67
2023-02-12T07:12:30.466Z,17.60
2023-02-12T07:15:01.035Z,14.05
2023-02-12T07:17:32.434Z,19.20
2023-02-12T07:20:04.513Z,16.00
2023-02-12T07:22:37.083Z,17.65
2023-02-12T07:25:08.007Z,18.25
2023-02-12T07:27:40.303Z,22.32
2023-02-12T07:30:11.403Z,17.37
2023-02-12T07:32:44.426Z,18.20
2023-02-12T07:35:14.971Z,14.38
2023-02-12T07:37:47.261Z,21.55
2023-02-12T07:40:19.433Z,17.65
2023-02-12T07:42:51.616Z,15.98
2023-02-12T07:45:25.117Z,20.50
2023-02-12T07:47:58.291Z,15.00
2023-02-12T07:50:29.025Z,20.87
2023-02-12T07:52:59.597Z,22.13
2023-02-12T07:55:30.039Z,17.35
2023-02-12T07:58:00.726Z,14.65
2023-02-12T08:00:31.355Z,18.65
2023-02-12T08:03:02.232Z,18.67
2023-02-12T08:05:32.725Z,9.58
2023-02-12T08:08:03.407Z,16.70
2023-02-12T08:10:33.825Z,15.88
2023-02-12T08:13:05.547Z,18.15
2023-02-12T08:15:36.020Z,19.07
2023-02-12T08:18:07.444Z,13.60
2023-02-12T08:20:38.189Z,18.62
2023-02-12T08:23:08.815Z,15.88
2023-02-12T08:25:39.443Z,18.62
2023-02-12T08:28:10.103Z,16.73
2023-02-12T08:30:40.901Z,16.73
2023-02-12T08:33:13.149Z,15.88
2023-02-12T08:35:43.728Z,14.15
2023-02-12T08:38:14.350Z,19.15
2023-02-12T08:40:45.495Z,11.90
2023-02-12T08:43:15.993Z,14.68
2023-02-12T08:45:46.847Z,14.40
2023-02-12T08:48:19.124Z,18.32
2023-02-12T08:50:49.868Z,12.20
2023-02-12T08:53:20.368Z,14.58
2023-02-12T08:55:53.314Z,18.23
2023-02-12T08:58:26.132Z,18.55
2023-02-12T09:00:56.966Z,13.20
2023-02-12T09:03:28.027Z,19.35
2023-02-12T09:05:58.938Z,14.98
2023-02-12T09:08:29.657Z,15.05
2023-02-12T09:11:00.245Z,15.75
2023-02-12T09:13:30.934Z,11.08
2023-02-12T09:16:05.833Z,16.00
2023-02-12T09:18:37.136Z,13.60
2023-02-12T09:21:16.748Z,12.75
2023-02-12T09:23:48.165Z,13.68
2023-02-12T09:26:22.478Z,14.07
2023-02-12T09:28:54.371Z,13.03
2023-02-12T09:31:29.356Z,21.27
2023-02-12T09:34:03.264Z,18.00
2023-02-12T09:36:36.903Z,12.33
2023-02-12T09:39:10.071Z,17.32
2023-02-12T09:42:01.575Z,13.08
2023-02-12T09:44:43.731Z,14.73
2023-02-12T09:47:34.886Z,12.78
2023-02-12T09:50:22.491Z,13.35
2023-02-12T09:52:56.927Z,14.95
2023-02-12T09:55:30.527Z,17.05
2023-02-12T09:58:07.644Z,21.40
2023-02-12T10:00:39.761Z,19.05
2023-02-12T10:03:13.371Z,18.02
2023-02-12T10:05:57.318Z,22.02
2023-02-12T10:08:46.625Z,21.70
2023-02-12T10:11:26.955Z,16.55
2023-02-12T10:14:12.832Z,18.70
2023-02-12T10:17:11.820Z,15.50
2023-02-12T10:20:01.605Z,17.02
2023-02-12T10:22:37.474Z,17.52
2023-02-12T10:25:27.655Z,16.15
2023-02-12T10:28:02.574Z,16.82
2023-02-12T10:30:45.386Z,14.53
2023-02-12T10:33:27.496Z,16.25
2023-02-12T10:36:05.351Z,17.67
2023-02-12T10:38:40.511Z,16.67
2023-02-12T10:41:20.604Z,17.75
2023-02-12T10:43:52.157Z,16.73
2023-02-12T10:46:23.067Z,23.25
2023-02-12T10:48:58.496Z,16.90
2023-02-12T10:51:52.542Z,17.42
2023-02-12T10:54:42.998Z,16.23
2023-02-12T10:57:19.908Z,13.53
2023-02-12T10:59:53.338Z,17.30
2023-02-12T11:02:26.839Z,15.88
2023-02-12T11:05:00.398Z,16.25
2023-02-12T11:07:39.502Z,16.05
2023-02-12T11:10:13.104Z,15.85
2023-02-12T11:12:46.185Z,14.05
2023-02-12T11:15:21.879Z,15.72
2023-02-12T11:18:06.929Z,18.98
2023-02-12T11:20:55.240Z,14.38
2023-02-12T11:23:32.877Z,13.53
2023-02-12T11:26:06.770Z,16.60
2023-02-12T11:28:40.341Z,15.15
2023-02-12T11:31:19.893Z,16.30
2023-02-12T11:34:09.004Z,15.60
2023-02-12T11:36:50.430Z,16.02
2023-02-12T11:39:29.932Z,12.68
2023-02-12T11:42:05.143Z,12.80
2023-02-12T11:44:41.668Z,14.00
2023-02-12T11:47:33.967Z,12.00
2023-02-12T11:50:11.143Z,15.18
2023-02-12T11:52:42.757Z,16.15
2023-02-12T11:55:25.352Z,15.30
2023-02-12T11:58:17.612Z,15.20
2023-02-12T12:00:54.029Z,16.80
2023-02-12T12:03:42.783Z,12.05
2023-02-12T12:06:40.084Z,14.93
2023-02-12T12:09:37.927Z,15.83
2023-02-12T12:12:13.294Z,14.00
2023-02-12T12:15:17.249Z,12.88
2023-02-12T12:18:11.554Z,11.33
2023-02-12T12:20:55.301Z,14.78
2023-02-12T12:23:47.580Z,14.05
2023-02-12T12:26:30.877Z,14.28
2023-02-12T12:29:07.634Z,14.53
2023-02-12T12:31:41.230Z,12.37
2023-02-12T12:34:23.132Z,17.17
2023-02-12T12:36:59.439Z,11.48
2023-02-12T12:39:46.158Z,13.95
2023-02-12T12:42:36.750Z,17.25
2023-02-12T12:45:27.824Z,12.23
2023-02-12T12:48:19.571Z,11.80
2023-02-12T12:51:16.078Z,15.10
2023-02-12T12:53:55.276Z,15.35
2023-02-12T12:56:56.076Z,17.17
2023-02-12T12:59:53.679Z,14.68
2023-02-12T13:02:59.557Z,16.00
2023-02-12T13:05:49.534Z,14.47
2023-02-12T13:08:47.287Z,11.90
2023-02-12T13:11:38.508Z,12.98
2023-02-12T13:14:18.101Z,10.25
2023-02-12T13:16:51.698Z,12.13
2023-02-12T13:19:33.725Z,9.85
2023-02-12T13:22:07.896Z,10.80
2023-02-12T13:24:51.413Z,9.55
2023-02-12T13:27:28.114Z,8.08
2023-02-12T13:30:07.459Z,9.28
2023-02-12T13:33:17.691Z,10.38
2023-02-12T13:35:51.265Z,8.45
2023-02-12T13:38:42.402Z,9.35
2023-02-12T13:41:16.959Z,7.75
2023-02-12T13:44:05.660Z,6.58
2023-02-12T13:46:57.387Z,5.33
2023-02-12T13:49:52.070Z,7.78
2023-02-12T13:52:26.754Z,5.80
2023-02-12T13:55:18.344Z,6.62
2023-02-12T13:57:53.084Z,6.95
2023-02-12T14:00:59.680Z,4.95
2023-02-12T14:03:32.458Z,8.50
2023-02-12T14:06:21.200Z,7.45
2023-02-12T14:08:57.578Z,5.60
2023-02-12T14:11:29.643Z,4.67
2023-02-12T14:14:04.824Z,4.78
2023-02-12T14:16:38.715Z,3.87
2023-02-12T14:19:47.175Z,7.12
2023-02-12T14:22:29.831Z,5.87
2023-02-12T14:25:19.778Z,6.60
2023-02-12T14:27:56.251Z,6.10
2023-02-12T14:30:36.773Z,7.33
2023-02-12T14:33:14.372Z,8.35
2023-02-12T14:35:47.454Z,5.25
2023-02-12T14:38:20.896Z,6.15
2023-02-12T14:40:53.597Z,6.97
2023-02-12T14:43:35.817Z,8.45
2023-02-12T14:46:27.713Z,8.33
2023-02-12T14:49:08.478Z,8.68
2023-02-12T14:52:00.040Z,6.90
2023-02-12T14:54:52.072Z,7.58
2023-02-12T14:57:31.340Z,9.10
2023-02-12T15:00:21.637Z,7.08
2023-02-12T15:03:04.988Z,7.53
2023-02-12T15:05:55.700Z,9.65
2023-02-12T15:08:44.617Z,8.55
2023-02-12T15:11:47.282Z,8.55
2023-02-12T15:14:26.636Z,7.97
2023-02-12T15:17:17.178Z,7.45
2023-02-12T15:20:10.550Z,7.22
2023-02-12T15:22:42.335Z,6.62
2023-02-12T15:25:24.919Z,7.58
2023-02-12T15:28:01.265Z,6.90
2023-02-12T15:30:35.054Z,7.47
2023-02-12T15:33:14.619Z,7.40
2023-02-12T15:35:47.209Z,9.58
2023-02-12T15:38:24.969Z,6.05
2023-02-12T15:41:01.699Z,7.97
2023-02-12T15:43:35.322Z,6.97
2023-02-12T15:46:08.119Z,7.53
2023-02-12T15:48:40.738Z,8.90
2023-02-12T15:51:16.902Z,7.37
2023-02-12T15:53:49.691Z,6.92
2023-02-12T15:56:24.766Z,9.15
2023-02-12T15:58:58.650Z,8.43
2023-02-12T16:01:33.379Z,7.80
2023-02-12T16:04:10.864Z,7.10
2023-02-12T16:06:43.988Z,7.08
2023-02-12T16:09:22.552Z,9.05
2023-02-12T16:11:53.438Z,6.92
2023-02-12T16:14:36.625Z,7.35
2023-02-12T16:17:10.093Z,7.03
2023-02-12T16:19:40.585Z,7.70
2023-02-12T16:22:19.445Z,8.78
2023-02-12T16:24:56.606Z,7.83
2023-02-12T16:27:30.752Z,5.90
2023-02-12T16:30:07.089Z,5.45
2023-02-12T16:32:43.226Z,8.15
2023-02-12T16:35:19.034Z,4.72
2023-02-12T16:37:56.460Z,4.83
2023-02-12T16:40:37.866Z,4.87
2023-02-12T16:43:26.475Z,5.60
2023-02-12T16:46:01.238Z,5.72
2023-02-12T16:48:33.817Z,8.60
2023-02-12T16:51:08.170Z,5.78
2023-02-12T16:53:44.116Z,6.50
2023-02-12T16:56:22.308Z,5.58
2023-02-12T16:58:58.846Z,6.45
2023-02-12T17:01:37.626Z,6.58
2023-02-12T17:04:13.979Z,5.35
2023-02-12T17:06:45.497Z,6.28
2023-02-12T17:09:18.608Z,6.00
2023-02-12T17:11:52.115Z,6.92
2023-02-12T17:14:23.766Z,6.45
2023-02-12T17:16:55.700Z,6.10
2023-02-12T17:19:28.360Z,6.53
2023-02-12T17:21:59.335Z,6.67
2023-02-12T17:24:34.611Z,7.12
2023-02-12T17:27:05.816Z,5.62
2023-02-12T17:29:40.587Z,7.97
2023-02-12T17:32:11.471Z,7.37
2023-02-12T17:34:48.324Z,7.10
2023-02-12T17:37:14.293Z,6.90
2023-02-12T17:39:47.296Z,7.72
2023-02-12T17:42:18.286Z,7.28
2023-02-12T17:44:51.950Z,8.68
2023-02-12T17:47:22.521Z,8.60
2023-02-12T17:49:54.104Z,8.40
2023-02-12T17:52:25.910Z,8.45
2023-02-12T17:54:57.321Z,6.67
2023-02-12T17:57:27.809Z,8.40
2023-02-12T17:59:59.605Z,7.20
2023-02-12T18:02:31.256Z,10.82
2023-02-12T18:05:04.344Z,10.38
2023-02-12T18:07:37.842Z,10.90
2023-02-12T18:10:11.643Z,11.63
2023-02-12T18:12:44.773Z,9.63
2023-02-12T18:15:15.323Z,14.00
2023-02-12T18:17:47.059Z,13.48
2023-02-12T18:20:17.722Z,10.68
2023-02-12T18:22:50.110Z,9.30
2023-02-12T18:25:20.800Z,10.50
2023-02-12T18:27:54.740Z,10.23
2023-02-12T18:30:25.320Z,13.45
2023-02-12T18:32:58.705Z,11.50
2023-02-12T18:35:30.575Z,10.23
2023-02-12T18:38:01.435Z,10.13
2023-02-12T18:40:34.743Z,12.90
2023-02-12T18:43:05.967Z,10.05
2023-02-12T18:45:39.088Z,9.38
2023-02-12T18:48:12.217Z,13.43
2023-02-12T18:50:43.382Z,12.95
2023-02-12T18:53:14.829Z,13.15
2023-02-12T18:55:45.542Z,12.28
2023-02-12T18:58:18.372Z,14.33
2023-02-12T19:00:50.642Z,14.38
2023-02-12T19:03:25.110Z,11.35
2023-02-12T19:06:00.442Z,11.90
2023-02-12T19:08:34.152Z,11.75
2023-02-12T19:11:06.995Z,11.63
2023-02-12T19:13:38.636Z,9.85
2023-02-12T19:16:14.630Z,11.28
2023-02-12T19:18:47.189Z,13.98
2023-02-12T19:21:21.526Z,12.20
2023-02-12T19:23:55.955Z,12.63
2023-02-12T19:26:28.811Z,10.82
2023-02-12T19:29:00.869Z,9.88
2023-02-12T19:31:41.520Z,10.15
2023-02-12T19:34:19.482Z,11.25
2023-02-12T19:36:51.368Z,10.80
2023-02-12T19:39:24.704Z,9.90
2023-02-12T19:41:56.815Z,11.95
2023-02-12T19:44:27.548Z,14.50
2023-02-12T19:46:59.816Z,11.48
2023-02-12T19:49:30.518Z,12.85
2023-02-12T19:52:03.103Z,9.70
2023-02-12T19:54:36.655Z,12.03
2023-02-12T19:57:08.821Z,11.65
2023-02-12T19:59:40.858Z,12.03
2023-02-12T20:02:12.748Z,11.28
2023-02-12T20:04:44.418Z,9.83
2023-02-12T20:07:15.663Z,10.50
2023-02-12T20:09:47.228Z,10.08
2023-02-12T20:12:21.459Z,11.03
2023-02-12T20:14:51.637Z,11.83
2023-02-12T20:17:24.469Z,11.40
2023-02-12T20:19:56.432Z,11.38
2023-02-12T20:22:27.137Z,10.90
2023-02-12T20:24:59.121Z,12.65
2023-02-12T20:27:30.708Z,13.78
2023-02-12T20:30:03.072Z,13.95
2023-02-12T20:32:35.351Z,14.50
2023-02-12T20:35:07.575Z,13.75
2023-02-12T20:37:39.789Z,15.85
2023-02-12T20:40:16.340Z,14.55
2023-02-12T20:42:45.971Z,15.00
2023-02-12T20:45:16.633Z,13.43
2023-02-12T20:47:47.440Z,14.25
2023-02-12T20:50:19.186Z,17.50
2023-02-12T20:52:51.347Z,15.48
2023-02-12T20:55:33.891Z,15.23
2023-02-12T20:58:05.782Z,17.17
2023-02-12T21:00:37.521Z,18.95
2023-02-12T21:03:09.485Z,19.85
2023-02-12T21:05:41.733Z,19.35
2023-02-12T21:08:12.164Z,21.65
2023-02-12T21:10:43.974Z,25.57
2023-02-12T21:13:14.814Z,22.15
2023-02-12T21:15:47.356Z,24.63
2023-02-12T21:18:19.781Z,25.55
2023-02-12T21:20:52.536Z,26.42
2023-02-12T21:23:25.624Z,24.72
2023-02-12T21:26:08.398Z,25.62
2023-02-12T21:28:40.490Z,26.77
2023-02-12T21:31:15.678Z,28.57
2023-02-12T21:33:47.929Z,25.57
2023-02-12T21:36:28.253Z,29.00
2023-02-12T21:39:08.423Z,30.02
2023-02-12T21:41:41.414Z,28.95
2023-02-12T21:44:17.627Z,29.95
2023-02-12T21:46:52.613Z,27.30
2023-02-12T21:49:33.489Z,27.93
2023-02-12T21:52:09.891Z,27.80
2023-02-12T21:54:44.380Z,28.55
2023-02-12T21:57:16.545Z,33.42
2023-02-12T21:59:51.662Z,33.25
2023-02-12T22:02:23.587Z,31.90
2023-02-12T22:04:56.146Z,31.00
2023-02-12T22:07:26.691Z,31.45
2023-02-12T22:09:57.665Z,30.37
2023-02-12T22:12:29.777Z,34.18
2023-02-12T22:15:00.551Z,32.88
2023-02-12T22:17:34.532Z,34.53
2023-02-12T22:20:08.985Z,33.15
2023-02-12T22:22:40.313Z,30.40
2023-02-12T22:25:10.847Z,33.35
2023-02-12T22:27:42.450Z,31.10
2023-02-12T22:30:14.833Z,29.27
2023-02-12T22:32:48.604Z,30.17
2023-02-12T22:35:20.029Z,32.83
2023-02-12T22:37:50.454Z,26.68
2023-02-12T22:40:21.058Z,30.52
2023-02-12T22:42:51.586Z,30.12
2023-02-12T22:45:23.264Z,36.08
2023-02-12T22:47:54.815Z,30.40
2023-02-12T22:50:26.817Z,34.65
2023-02-12T22:52:57.684Z,31.07
2023-02-12T22:55:28.382Z,35.28
2023-02-12T22:58:00.352Z,36.73
2023-02-12T23:00:31.204Z,32.60
2023-02-12T23:03:01.759Z,40.23
2023-02-12T23:05:34.225Z,35.23
2023-02-12T23:08:06.599Z,36.98
2023-02-12T23:10:37.107Z,34.13
2023-02-12T23:13:07.503Z,34.53
2023-02-12T23:15:37.930Z,36.65
2023-02-12T23:18:08.365Z,37.13
2023-02-12T23:20:41.812Z,42.15
2023-02-12T23:23:12.335Z,35.98
2023-02-12T23:25:43.224Z,34.75
2023-02-12T23:28:14.538Z,38.88
2023-02-12T23:30:45.080Z,34.63
2023-02-12T23:33:15.905Z,37.33
2023-02-12T23:35:47.965Z,35.52
2023-02-12T23:38:18.700Z,37.67
2023-02-12T23:40:49.530Z,35.15
2023-02-12T23:43:20.040Z,36.63
2023-02-12T23:45:50.524Z,36.93
2023-02-12T23:48:20.984Z,35.28
2023-02-12T23:50:51.550Z,32.35
2023-02-12T23:53:23.489Z,34.20
2023-02-12T23:55:53.911Z,32.08
2023-02-12T23:58:24.345Z,29.63
